Time;durP1;ratioP1;P1;durP2;ratioP2;P2;SDS_P1;SDS_P2;PMS_P1;PMS_P2;Temp;Humidity;BMP_temperature;BMP_pressure;BME280_temperature;BME280_humidity;BME280_pressure;Samples;Min_cycle;Max_cycle;Signal;HPM_P1;HPM_P2
2021/12/08 00:01:07;;;;;;;33.42;16.70;;;102.40;2227.20;;;;;;5010260;28;20129;-68
2021/12/08 00:03:33;;;;;;;18.23;9.80;;;77.70;2227.20;;;;;;5010210;28;20087;-69
2021/12/08 00:06:00;;;;;;;20.35;13.00;;;77.70;2227.20;;;;;;5010377;28;20034;-59
2021/12/08 00:08:28;;;;;;;36.13;20.25;;;77.70;2227.20;;;;;;5010400;28;20033;-60
2021/12/08 00:13:25;;;;;;;33.00;20.05;;;77.70;2227.20;;;;;;5010298;28;20034;-60
2021/12/08 00:15:54;;;;;;;19.55;11.38;;;77.70;2227.20;;;;;;5010133;28;20471;-57
2021/12/08 00:18:24;;;;;;;36.80;20.85;;;77.70;2227.20;;;;;;5009995;28;20388;-56
2021/12/08 00:20:52;;;;;;;20.40;10.40;;;77.70;2227.20;;;;;;5010287;28;20388;-56
2021/12/08 00:23:19;;;;;;;17.30;9.38;;;77.70;2227.20;;;;;;5009986;28;20058;-56
2021/12/08 00:25:45;;;;;;;21.98;11.13;;;77.70;2227.20;;;;;;5013103;28;20030;-56
2021/12/08 00:28:12;;;;;;;18.65;9.85;;;77.60;2227.20;;;;;;5013925;28;20026;-57
2021/12/08 00:30:40;;;;;;;17.00;9.40;;;77.60;2227.20;;;;;;5014199;28;20037;-56
2021/12/08 00:33:07;;;;;;;29.88;16.75;;;77.60;2227.20;;;;;;5013950;28;20113;-56
2021/12/08 00:35:34;;;;;;;29.42;16.27;;;77.60;2227.20;;;;;;5013812;28;20058;-57
2021/12/08 00:38:00;;;;;;;21.08;11.60;;;77.60;2227.20;;;;;;5013882;28;20034;-57
2021/12/08 00:40:27;;;;;;;28.95;14.15;;;77.70;2227.20;;;;;;5013921;28;20108;-57
2021/12/08 00:42:53;;;;;;;76.28;38.13;;;77.60;2227.20;;;;;;5013560;28;20026;-55
2021/12/08 00:45:21;;;;;;;52.03;28.75;;;77.50;2227.20;;;;;;5013572;28;20467;-57
2021/12/08 00:47:48;;;;;;;15.95;9.68;;;77.50;2227.20;;;;;;5013737;28;20029;-57
2021/12/08 00:50:17;;;;;;;24.65;13.48;;;77.50;2227.20;;;;;;5013665;28;20549;-59
2021/12/08 00:52:42;;;;;;;48.20;22.83;;;77.60;2227.20;;;;;;5013325;28;20041;-56
2021/12/08 00:55:14;;;;;;;38.47;21.05;;;77.70;2227.20;;;;;;5013649;28;20032;-59
2021/12/08 00:57:39;;;;;;;21.77;13.00;;;77.60;2227.20;;;;;;5013318;28;20037;-57
2021/12/08 01:00:12;;;;;;;57.22;26.92;;;77.60;2227.20;;;;;;5013457;28;20025;-56
2021/12/08 01:02:39;;;;;;;17.40;11.40;;;77.60;2227.20;;;;;;5013509;28;20109;-56
2021/12/08 01:05:16;;;;;;;96.53;55.50;;;77.60;2227.20;;;;;;5013557;28;20056;-57
2021/12/08 01:07:43;;;;;;;24.52;13.63;;;77.60;2227.20;;;;;;5013293;28;20076;-56
2021/12/08 01:10:14;;;;;;;43.28;24.75;;;77.60;2227.20;;;;;;5013309;28;20121;-56
2021/12/08 01:12:40;;;;;;;21.63;10.38;;;77.50;2227.20;;;;;;5013226;28;20069;-57
2021/12/08 01:15:07;;;;;;;26.20;14.45;;;77.60;2227.20;;;;;;5013116;28;20041;-56
2021/12/08 01:17:33;;;;;;;16.30;9.68;;;77.60;2227.20;;;;;;5013336;28;20100;-56
2021/12/08 01:19:59;;;;;;;31.67;19.55;;;77.50;2227.20;;;;;;5013411;28;20058;-69
2021/12/08 01:22:25;;;;;;;14.90;8.77;;;77.50;2227.20;;;;;;5012983;28;20033;-65
2021/12/08 01:24:51;;;;;;;20.10;10.48;;;77.60;2227.20;;;;;;5012952;28;20034;-69
2021/12/08 01:27:17;;;;;;;17.73;10.27;;;77.50;2227.20;;;;;;5013094;28;20498;-67
2021/12/08 01:29:47;;;;;;;25.63;15.13;;;77.40;2227.20;;;;;;5010592;28;20038;-69
2021/12/08 01:32:13;;;;;;;27.48;14.23;;;77.50;2227.20;;;;;;5012671;28;20499;-67
2021/12/08 01:34:39;;;;;;;19.63;10.93;;;77.50;2227.20;;;;;;5013062;28;20029;-66
2021/12/08 01:37:04;;;;;;;19.20;11.57;;;77.50;2227.20;;;;;;5012586;28;20057;-68
2021/12/08 01:39:30;;;;;;;14.20;8.10;;;77.50;2227.20;;;;;;5012866;28;20105;-65
2021/12/08 01:41:56;;;;;;;20.48;11.85;;;77.50;2227.20;;;;;;5012859;28;20037;-58
2021/12/08 01:47:06;;;;;;;17.13;9.63;;;77.50;2227.20;;;;;;5012675;28;20080;-69
2021/12/08 01:49:32;;;;;;;14.23;9.55;;;77.50;2227.20;;;;;;5012372;28;20026;-58
2021/12/08 01:51:58;;;;;;;15.90;9.18;;;77.50;2227.20;;;;;;5012616;28;20037;-62
2021/12/08 01:54:24;;;;;;;15.27;8.90;;;77.50;2227.20;;;;;;5012669;28;20050;-63
2021/12/08 01:56:51;;;;;;;16.77;9.43;;;77.50;2227.20;;;;;;5012264;28;20056;-68
2021/12/08 01:59:17;;;;;;;17.05;10.48;;;77.50;2227.20;;;;;;5012427;28;20033;-68
2021/12/08 02:01:45;;;;;;;15.48;8.77;;;77.50;2227.20;;;;;;5012416;28;20048;-67
2021/12/08 02:04:11;;;;;;;17.58;10.07;;;77.50;2227.20;;;;;;5012203;28;20534;-67
2021/12/08 02:06:40;;;;;;;16.98;9.13;;;77.50;2227.20;;;;;;5012539;28;20026;-69
2021/12/08 02:09:10;;;;;;;16.63;8.23;;;77.50;2227.20;;;;;;5012329;28;20021;-60
2021/12/08 02:11:38;;;;;;;18.02;8.85;;;77.60;2227.20;;;;;;5012085;28;20042;-62
2021/12/08 02:14:03;;;;;;;13.57;8.73;;;77.40;2227.20;;;;;;5012009;28;20030;-69
2021/12/08 02:16:30;;;;;;;18.67;10.38;;;77.40;2227.20;;;;;;5012094;28;20083;-58
2021/12/08 02:18:56;;;;;;;16.63;10.77;;;77.30;2227.20;;;;;;5012166;28;20100;-69
2021/12/08 02:21:33;;;;;;;20.08;8.30;;;77.40;2227.20;;;;;;5011773;28;20038;-61
2021/12/08 02:24:02;;;;;;;15.23;8.90;;;77.40;2227.20;;;;;;5011726;28;20109;-57
2021/12/08 02:26:29;;;;;;;18.35;10.63;;;77.30;2227.20;;;;;;5012170;28;20037;-66
2021/12/08 02:28:56;;;;;;;18.33;9.68;;;77.40;2227.20;;;;;;5011811;28;20113;-69
2021/12/08 02:31:40;;;;;;;19.52;10.20;;;77.30;2227.20;;;;;;5011761;28;20096;-69
2021/12/08 02:47:54;;;;;;;16.70;9.05;;;77.10;2227.20;;;;;;5011059;28;20040;-66
2021/12/08 02:50:30;;;;;;;17.00;7.70;;;77.10;2227.20;;;;;;5011429;28;20030;-64
2021/12/08 02:52:58;;;;;;;13.93;7.57;;;77.00;2227.20;;;;;;5011431;28;20366;-64
2021/12/08 02:55:24;;;;;;;16.00;9.90;;;77.00;2227.20;;;;;;5011369;28;20038;-67
2021/12/08 02:57:50;;;;;;;25.15;13.23;;;76.90;2227.20;;;;;;5011231;28;20034;-67
2021/12/08 03:00:23;;;;;;;15.35;9.57;;;76.90;2227.20;;;;;;5011190;28;20037;-69
2021/12/08 03:02:49;;;;;;;16.17;9.57;;;76.80;2227.20;;;;;;5011319;28;20109;-59
2021/12/08 03:05:15;;;;;;;14.90;8.57;;;76.80;2227.20;;;;;;5011403;28;20034;-68
2021/12/08 03:07:41;;;;;;;24.70;12.73;;;76.80;2227.20;;;;;;5011091;28;20447;-66
2021/12/08 03:10:14;;;;;;;24.05;11.98;;;76.80;2227.20;;;;;;4993268;28;20033;-68
2021/12/08 03:12:40;;;;;;;14.02;8.85;;;76.80;2227.20;;;;;;5010928;28;20499;-68
2021/12/08 03:15:08;;;;;;;18.42;9.80;;;52.10;2227.20;;;;;;5011201;28;20029;-67
2021/12/08 03:17:34;;;;;;;20.30;13.18;;;52.10;2227.20;;;;;;5011031;28;20038;-69
2021/12/08 03:20:05;;;;;;;12.63;8.27;;;52.00;2227.20;;;;;;5010898;28;20522;-67
2021/12/08 03:22:31;;;;;;;20.98;10.88;;;52.00;2227.20;;;;;;5010648;28;20041;-68
2021/12/08 03:25:01;;;;;;;22.42;10.82;;;52.10;2227.20;;;;;;5011039;28;20053;-68
2021/12/08 03:27:33;;;;;;;20.00;13.60;;;52.00;2227.20;;;;;;5011008;28;20037;-68
2021/12/08 03:30:12;;;;;;;26.17;15.10;;;52.10;2227.20;;;;;;5011025;28;20022;-62
2021/12/08 03:32:39;;;;;;;25.13;12.82;;;52.10;2227.20;;;;;;5010794;28;20444;-68
2021/12/08 03:35:09;;;;;;;37.67;16.23;;;52.10;2227.20;;;;;;5010731;28;20097;-69
2021/12/08 03:37:38;;;;;;;14.68;9.15;;;52.00;2227.20;;;;;;5010632;28;20491;-66
2021/12/08 03:40:10;;;;;;;17.75;11.27;;;52.10;2227.20;;;;;;5010671;28;20036;-67
2021/12/08 03:42:37;;;;;;;17.88;9.73;;;52.00;2227.20;;;;;;5010680;28;20030;-66
2021/12/08 03:45:12;;;;;;;14.73;9.10;;;52.00;2227.20;;;;;;5010249;28;20507;-56
2021/12/08 03:47:42;;;;;;;15.63;8.75;;;52.00;2227.20;;;;;;5010705;28;20494;-61
2021/12/08 03:50:12;;;;;;;17.90;8.63;;;52.00;2227.20;;;;;;5010625;28;20033;-56
2021/12/08 03:52:38;;;;;;;13.63;7.78;;;52.00;2227.20;;;;;;5010502;28;20034;-60
2021/12/08 03:55:10;;;;;;;13.20;8.32;;;51.90;2227.20;;;;;;5010526;28;20041;-57
2021/12/08 03:57:36;;;;;;;18.25;9.82;;;51.90;2227.20;;;;;;5010709;28;20022;-56
2021/12/08 04:00:17;;;;;;;14.15;8.18;;;51.80;2227.20;;;;;;5010275;28;20026;-56
2021/12/08 04:02:43;;;;;;;14.30;8.18;;;51.90;2227.20;;;;;;5010314;28;20361;-56
2021/12/08 04:05:10;;;;;;;19.33;11.05;;;51.90;2227.20;;;;;;5010446;28;20442;-56
2021/12/08 04:07:44;;;;;;;21.17;13.30;;;51.80;2227.20;;;;;;5010619;28;20034;-56
2021/12/08 04:10:17;;;;;;;17.77;11.00;;;51.90;2227.20;;;;;;5010341;28;20030;-57
2021/12/08 04:12:44;;;;;;;67.93;34.50;;;51.80;2227.20;;;;;;5010206;28;20038;-56
2021/12/08 04:15:12;;;;;;;17.13;11.57;;;51.90;2227.20;;;;;;5010142;28;20033;-57
2021/12/08 04:17:41;;;;;;;23.75;12.93;;;51.80;2227.20;;;;;;5010136;28;20026;-56
2021/12/08 04:20:17;;;;;;;22.05;12.57;;;51.90;2227.20;;;;;;5010304;28;20022;-56
2021/12/08 04:22:47;;;;;;;23.85;13.70;;;51.80;2227.20;;;;;;5009975;28;20108;-56
2021/12/08 04:25:18;;;;;;;32.83;16.20;;;51.90;2227.20;;;;;;5010144;28;20121;-57
2021/12/08 04:27:45;;;;;;;34.55;21.80;;;51.80;2227.20;;;;;;5010080;28;20042;-56
2021/12/08 04:30:15;;;;;;;44.38;32.22;;;51.80;2227.20;;;;;;5009776;28;20030;-56
2021/12/08 04:32:41;;;;;;;64.45;33.92;;;51.70;2227.20;;;;;;5009890;28;20452;-56
2021/12/08 04:35:10;;;;;;;82.95;45.67;;;51.70;2227.20;;;;;;4992639;28;20486;-56
2021/12/08 04:37:44;;;;;;;56.75;28.40;;;51.70;2227.20;;;;;;5010166;28;20026;-61
2021/12/08 04:40:26;;;;;;;;;;;51.80;2227.20;;;;;;5010844;28;20034;-59
2021/12/08 04:45:59;;;;;;;39.60;21.43;;;51.60;2227.20;;;;;;5010754;28;20022;-67
2021/12/08 04:53:59;;;;;;;91.60;46.80;;;51.60;2227.20;;;;;;5010013;28;20038;-69
2021/12/08 05:04:49;;;;;;;48.22;27.83;;;51.50;2227.20;;;;;;5009638;28;20050;-68
2021/12/08 05:09:54;;;;;;;77.47;43.80;;;51.60;2227.20;;;;;;5009666;28;20080;-57
2021/12/08 05:12:28;;;;;;;46.75;26.50;;;51.60;2227.20;;;;;;5013076;28;20499;-65
2021/12/08 05:15:05;;;;;;;44.88;28.98;;;51.60;2227.20;;;;;;5012976;28;20034;-67
2021/12/08 05:18:06;;;;;;;119.18;56.95;;;51.50;2227.20;;;;;;5013151;28;20018;-67
2021/12/08 05:20:36;;;;;;;27.50;16.23;;;51.50;2227.20;;;;;;5011213;28;20184;-69
2021/12/08 05:23:15;;;;;;;24.63;15.65;;;51.50;2227.20;;;;;;5012838;28;20567;-68
2021/12/08 05:25:41;;;;;;;26.85;17.30;;;51.50;2227.20;;;;;;5012905;28;20499;-68
2021/12/08 05:28:13;;;;;;;32.13;20.55;;;51.40;2227.20;;;;;;5013051;28;20141;-62
2021/12/08 05:30:54;;;;;;;79.20;43.17;;;51.30;2227.20;;;;;;5012983;28;20029;-61
2021/12/08 05:33:20;;;;;;;92.43;51.20;;;51.20;2227.20;;;;;;5012999;28;20514;-59
2021/12/08 05:35:47;;;;;;;143.32;69.93;;;26.50;2201.60;;;;;;5012929;28;20058;-66
2021/12/08 05:38:14;;;;;;;138.73;68.45;;;26.50;2201.60;;;;;;5012899;28;20464;-66
2021/12/08 05:40:51;;;;;;;136.75;73.97;;;51.20;2227.20;;;;;;5012739;28;20025;-61
2021/12/08 05:43:17;;;;;;;128.07;79.00;;;26.50;2201.60;;;;;;5012832;28;20077;-66
2021/12/08 05:45:43;;;;;;;117.85;77.50;;;26.50;2201.60;;;;;;5012523;28;20030;-67
2021/12/08 05:48:09;;;;;;;61.88;50.55;;;26.50;2201.60;;;;;;5012542;28;20112;-66
2021/12/08 05:50:47;;;;;;;73.95;52.25;;;26.40;2201.60;;;;;;5012729;28;20468;-62
2021/12/08 05:53:13;;;;;;;37.88;28.40;;;26.30;2201.60;;;;;;5012295;28;20037;-67
2021/12/08 05:55:43;;;;;;;46.65;32.58;;;26.20;2201.60;;;;;;5012773;28;20097;-66
2021/12/08 05:58:10;;;;;;;47.13;34.85;;;26.20;2201.60;;;;;;5012491;28;20030;-67
2021/12/08 06:00:44;;;;;;;42.55;35.78;;;26.30;2201.60;;;;;;5016129;28;20083;-67
2021/12/08 06:03:11;;;;;;;45.35;31.58;;;26.30;2201.60;;;;;;5032403;28;20427;-55
2021/12/08 06:05:37;;;;;;;47.58;32.20;;;26.40;2201.60;;;;;;5032371;28;20391;-66
2021/12/08 06:08:04;;;;;;;78.22;48.80;;;26.40;2201.60;;;;;;5031916;28;20025;-66
2021/12/08 06:10:37;;;;;;;114.50;74.72;;;26.40;2201.60;;;;;;5032190;28;20082;-57
2021/12/08 06:13:05;;;;;;;117.00;77.90;;;26.50;2201.60;;;;;;5031845;28;20036;-64
2021/12/08 06:15:32;;;;;;;84.15;57.72;;;26.50;2201.60;;;;;;5031731;28;20053;-66
2021/12/08 06:17:57;;;;;;;108.63;79.90;;;26.50;2201.60;;;;;;5031962;28;20029;-67
2021/12/08 06:20:24;;;;;;;94.97;70.45;;;51.20;2227.20;;;;;;5031848;28;20075;-68
2021/12/08 06:22:52;;;;;;;82.80;49.35;;;51.20;2227.20;;;;;;5031254;28;20050;-65
2021/12/08 06:25:19;;;;;;;88.00;46.92;;;51.20;2227.20;;;;;;5031738;28;20382;-67
2021/12/08 06:27:46;;;;;;;69.05;37.08;;;51.30;2227.20;;;;;;5031733;28;20049;-66
2021/12/08 06:30:16;;;;;;;51.25;29.85;;;51.30;2227.20;;;;;;5031230;28;20061;-66
2021/12/08 06:32:42;;;;;;;44.35;33.17;;;51.40;2227.20;;;;;;5031650;28;20061;-57
2021/12/08 06:35:13;;;;;;;54.95;39.10;;;51.40;2227.20;;;;;;5031617;28;20025;-67
2021/12/08 06:37:41;;;;;;;144.40;79.60;;;51.40;2227.20;;;;;;5031259;28;20065;-64
2021/12/08 06:40:07;;;;;;;202.38;102.80;;;51.30;2227.20;;;;;;5031314;28;20024;-66
2021/12/08 06:42:35;;;;;;;142.55;84.38;;;51.30;2227.20;;;;;;5031145;28;20104;-64
2021/12/08 06:45:11;;;;;;;148.32;82.47;;;51.30;2227.20;;;;;;5031455;28;20025;-65
2021/12/08 06:47:36;;;;;;;142.80;80.82;;;51.40;2227.20;;;;;;5031262;28;20021;-67
2021/12/08 06:50:10;;;;;;;115.70;64.03;;;51.40;2227.20;;;;;;5031114;28;20025;-61
2021/12/08 06:52:38;;;;;;;154.07;80.90;;;51.50;2227.20;;;;;;5031176;28;20105;-64
2021/12/08 06:55:30;;;;;;;313.92;164.20;;;51.50;2227.20;;;;;;5030873;28;20022;-62
2021/12/08 06:58:04;;;;;;;475.38;261.85;;;51.60;2227.20;;;;;;4970418;28;20501;-64
2021/12/08 07:00:51;;;;;;;333.35;179.50;;;51.50;2227.20;;;;;;4970111;28;20133;-60
2021/12/08 07:06:11;;;;;;;423.80;248.25;;;51.60;2227.20;;;;;;4970150;28;20130;-67
2021/12/08 07:08:46;;;;;;;380.20;223.70;;;51.60;2227.20;;;;;;4970084;28;20047;-61
2021/12/08 07:11:18;;;;;;;402.55;226.20;;;51.70;2227.20;;;;;;4969916;28;20038;-66
2021/12/08 07:13:44;;;;;;;354.05;211.25;;;51.70;2227.20;;;;;;4969745;28;20034;-63
2021/12/08 07:16:15;;;;;;;294.83;193.55;;;51.80;2227.20;;;;;;4969595;28;20042;-58
2021/12/08 07:18:56;;;;;;;266.38;170.52;;;51.80;2227.20;;;;;;4969657;28;20110;-66
2021/12/08 07:21:27;;;;;;;284.73;184.10;;;51.70;2227.20;;;;;;4969546;28;20059;-66
2021/12/08 07:24:04;;;;;;;242.02;144.68;;;51.80;2227.20;;;;;;4969437;28;20154;-66
2021/12/08 07:26:33;;;;;;;237.18;151.52;;;51.90;2227.20;;;;;;4970076;28;20098;-63
2021/12/08 07:29:01;;;;;;;236.60;143.80;;;52.00;2227.20;;;;;;4970014;28;20086;-65
2021/12/08 07:31:34;;;;;;;217.48;138.30;;;52.10;2227.20;;;;;;4969673;28;20066;-63
2021/12/08 07:34:05;;;;;;;194.30;121.13;;;76.80;2227.20;;;;;;4977670;28;20087;-61
2021/12/08 07:36:34;;;;;;;207.05;129.00;;;76.80;2227.20;;;;;;5030554;28;20029;-64
2021/12/08 07:39:00;;;;;;;178.73;113.18;;;76.90;2227.20;;;;;;5030315;28;20034;-62
2021/12/08 07:41:32;;;;;;;192.10;117.43;;;77.00;2227.20;;;;;;5030469;28;20534;-60
2021/12/08 07:44:04;;;;;;;238.35;145.55;;;77.00;2227.20;;;;;;5030430;28;20029;-67
2021/12/08 07:46:36;;;;;;;301.08;193.45;;;77.00;2227.20;;;;;;5030237;28;20033;-56
2021/12/08 07:49:08;;;;;;;290.30;187.95;;;77.10;2227.20;;;;;;5030208;28;20021;-65
2021/12/08 07:51:51;;;;;;;277.02;182.88;;;77.10;2227.20;;;;;;5029777;28;20045;-64
2021/12/08 07:54:19;;;;;;;246.93;156.18;;;77.20;2227.20;;;;;;5030487;28;20033;-65
2021/12/08 07:56:48;;;;;;;250.90;163.80;;;77.10;2227.20;;;;;;5030397;28;20038;-65
2021/12/08 07:59:17;;;;;;;226.20;150.77;;;77.20;2227.20;;;;;;5030123;28;20026;-62
2021/12/08 08:01:47;;;;;;;195.65;123.55;;;77.20;2227.20;;;;;;5030030;28;20464;-66
2021/12/08 08:04:16;;;;;;;198.38;123.82;;;77.20;2227.20;;;;;;5029916;28;20029;-66
2021/12/08 08:06:47;;;;;;;193.27;119.78;;;77.20;2227.20;;;;;;5029869;28;20467;-66
2021/12/08 08:09:18;;;;;;;206.50;130.38;;;77.40;2227.20;;;;;;5030124;28;20079;-64
2021/12/08 08:11:54;;;;;;;178.45;117.15;;;77.60;2227.20;;;;;;5029947;28;20064;-61
2021/12/08 08:14:22;;;;;;;144.55;88.65;;;77.70;2227.20;;;;;;5029937;28;20034;-64
2021/12/08 08:16:51;;;;;;;223.02;145.02;;;102.80;2227.20;;;;;;5030030;28;20109;-65
2021/12/08 08:19:19;;;;;;;239.10;159.65;;;153.70;2252.80;;;;;;5029980;28;20032;-62
2021/12/08 08:21:50;;;;;;;188.57;131.15;;;179.20;2252.80;;;;;;5029625;28;20029;-65
2021/12/08 08:24:18;;;;;;;152.13;101.00;;;179.20;2252.80;;;;;;5029877;28;20112;-66
2021/12/08 08:26:46;;;;;;;134.75;89.30;;;153.90;2252.80;;;;;;5029926;28;20036;-67
2021/12/08 08:29:12;;;;;;;166.15;112.18;;;128.80;2252.80;;;;;;5029843;28;20034;-62
2021/12/08 08:31:56;;;;;;;156.40;105.40;;;128.40;2252.80;;;;;;5029801;28;20468;-55
2021/12/08 08:34:22;;;;;;;164.48;116.68;;;128.40;2252.80;;;;;;5029883;28;20037;-59
2021/12/08 08:36:50;;;;;;;189.00;134.93;;;154.40;2252.80;;;;;;5031903;28;20108;-55
2021/12/08 08:39:28;;;;;;;198.52;149.27;;;205.20;2252.80;;;;;;5030722;28;20030;-64
2021/12/08 08:42:01;;;;;;;206.63;159.70;;;256.20;2252.80;;;;;;5029698;28;20060;-56
2021/12/08 08:44:32;;;;;;;205.05;156.65;;;281.60;2201.60;;;;;;5029874;28;20021;-55
2021/12/08 08:47:01;;;;;;;186.95;150.88;;;282.50;2073.60;;;;;;5033084;28;20025;-56
2021/12/08 08:49:30;;;;;;;193.75;158.05;;;307.70;1996.80;;;;;;5033602;28;20033;-61
2021/12/08 08:52:06;;;;;;;165.50;135.88;;;332.90;1920.00;;;;;;5033440;28;20037;-55
2021/12/08 08:54:39;;;;;;;165.13;135.30;;;333.00;1894.40;;;;;;5033323;28;20399;-57
2021/12/08 08:57:18;;;;;;;183.70;150.48;;;332.90;1868.80;;;;;;5033509;28;20021;-57
2021/12/08 08:59:49;;;;;;;144.23;117.60;;;333.30;1817.60;;;;;;5033483;28;20048;-55
2021/12/08 09:02:22;;;;;;;122.45;100.65;;;333.60;1792.00;;;;;;5033207;28;20026;-61
2021/12/08 09:04:55;;;;;;;82.05;69.25;;;359.00;1715.20;;;;;;5033234;28;20029;-67
2021/12/08 09:07:29;;;;;;;80.93;65.25;;;384.40;1612.80;;;;;;5030468;28;20029;-69
2021/12/08 09:09:57;;;;;;;104.72;78.78;;;333.70;1715.20;;;;;;5031823;28;20017;-64
2021/12/08 09:12:32;;;;;;;83.05;64.45;;;358.50;1689.60;;;;;;5031259;28;20025;-56
2021/12/08 09:15:10;;;;;;;108.45;91.03;;;358.50;1715.20;;;;;;5031358;28;20028;-69
2021/12/08 09:17:42;;;;;;;164.02;137.90;;;358.70;1689.60;;;;;;5031557;28;20163;-67
2021/12/08 09:20:24;;;;;;;109.22;87.05;;;358.90;1689.60;;;;;;5031139;28;20018;-67
2021/12/08 09:22:59;;;;;;;88.93;68.45;;;332.80;1766.40;;;;;;5031036;28;20053;-65
2021/12/08 09:25:36;;;;;;;94.15;68.78;;;307.30;1843.20;;;;;;5031433;28;20108;-65
2021/12/08 09:28:15;;;;;;;93.55;67.95;;;281.60;1920.00;;;;;;5031342;28;20376;-64
2021/12/08 09:30:46;;;;;;;104.93;76.53;;;281.60;1920.00;;;;;;5031094;28;20025;-62
2021/12/08 09:33:17;;;;;;;123.13;79.82;;;230.90;1996.80;;;;;;5033229;28;20041;-67
2021/12/08 09:35:51;;;;;;;147.80;97.95;;;205.20;2150.40;;;;;;5032587;28;20017;-66
2021/12/08 09:38:27;;;;;;;98.72;64.13;;;205.00;2252.80;;;;;;5047555;28;20160;-67
2021/12/08 09:41:10;;;;;;;164.13;113.82;;;204.90;2252.80;;;;;;5032388;28;20033;-64
2021/12/08 09:43:45;;;;;;;120.50;75.53;;;179.80;2252.80;;;;;;5032866;28;20025;-66
2021/12/08 09:46:13;;;;;;;129.75;87.40;;;179.50;2252.80;;;;;;5032232;28;20025;-66
2021/12/08 09:48:41;;;;;;;136.38;90.55;;;179.40;2252.80;;;;;;5032621;28;20025;-68
2021/12/08 09:51:08;;;;;;;116.88;77.72;;;179.40;2252.80;;;;;;5032322;28;20032;-68
2021/12/08 09:53:34;;;;;;;115.60;71.65;;;179.20;2252.80;;;;;;5032299;28;20059;-66
2021/12/08 09:56:02;;;;;;;90.40;57.90;;;179.30;2252.80;;;;;;5032073;28;20527;-61
2021/12/08 09:58:28;;;;;;;102.22;65.35;;;179.20;2252.80;;;;;;5032487;28;20021;-55
2021/12/08 10:00:59;;;;;;;101.93;59.63;;;179.20;2252.80;;;;;;5026710;28;20102;-58
2021/12/08 10:03:25;;;;;;;58.40;38.70;;;154.30;2252.80;;;;;;5032299;28;20068;-58
2021/12/08 10:05:52;;;;;;;80.40;51.80;;;154.40;2252.80;;;;;;5032187;28;20033;-55
2021/12/08 10:08:18;;;;;;;72.30;46.38;;;154.20;2252.80;;;;;;5032183;28;20037;-55
2021/12/08 10:10:45;;;;;;;72.45;47.83;;;154.20;2252.80;;;;;;5031816;28;20044;-69
2021/12/08 10:13:12;;;;;;;132.55;85.35;;;154.50;2252.80;;;;;;5032036;28;20040;-55
2021/12/08 10:15:39;;;;;;;79.55;51.00;;;154.50;2252.80;;;;;;5031948;28;20037;-69
2021/12/08 10:18:06;;;;;;;99.40;61.30;;;154.40;2252.80;;;;;;5014001;28;20437;-64
2021/12/08 10:20:46;;;;;;;71.15;45.33;;;179.20;2252.80;;;;;;5031933;28;20080;-69
2021/12/08 10:23:19;;;;;;;60.97;37.42;;;154.30;2252.80;;;;;;5031348;28;20053;-64
2021/12/08 10:26:20;;;;;;;72.47;48.58;;;154.30;2252.80;;;;;;5031916;28;20030;-55
2021/12/08 10:28:49;;;;;;;44.85;30.85;;;154.20;2252.80;;;;;;5028743;28;20037;-62
2021/12/08 10:31:28;;;;;;;43.75;27.25;;;154.30;2252.80;;;;;;5031663;28;20045;-56
2021/12/08 10:39:18;;;;;;;47.47;30.48;;;179.30;2252.80;;;;;;5031574;28;20064;-54
2021/12/08 10:41:55;;;;;;;39.03;21.20;;;154.30;2252.80;;;;;;5031327;28;20426;-60
2021/12/08 10:44:23;;;;;;;36.53;24.75;;;154.20;2252.80;;;;;;5031288;28;20067;-55
2021/12/08 10:46:57;;;;;;;21.00;14.38;;;154.50;2252.80;;;;;;5031328;28;20116;-55
2021/12/08 10:54:45;;;;;;;47.85;27.55;;;153.90;2252.80;;;;;;5031016;28;20037;-53
2021/12/08 10:57:33;;;;;;;58.47;34.90;;;154.40;2252.80;;;;;;5030962;28;20477;-56
2021/12/08 11:00:04;;;;;;;21.98;13.40;;;154.40;2252.80;;;;;;5031027;28;20078;-52
2021/12/08 11:02:43;;;;;;;41.60;22.20;;;154.10;2252.80;;;;;;5031258;28;20030;-52
2021/12/08 11:05:24;;;;;;;30.55;17.42;;;154.20;2252.80;;;;;;5031066;28;20029;-53
2021/12/08 11:08:04;;;;;;;42.88;26.48;;;154.40;2252.80;;;;;;5030568;28;20080;-56
2021/12/08 11:10:32;;;;;;;34.13;21.58;;;179.20;2252.80;;;;;;5030911;28;20021;-59
2021/12/08 11:13:00;;;;;;;24.65;15.75;;;154.40;2252.80;;;;;;5031237;28;20091;-53
2021/12/08 11:15:31;;;;;;;22.73;15.50;;;154.40;2252.80;;;;;;5030875;28;20109;-58
2021/12/08 11:18:17;;;;;;;21.33;14.50;;;154.40;2252.80;;;;;;5030906;28;20036;-55
2021/12/08 11:20:54;;;;;;;56.50;32.67;;;179.20;2252.80;;;;;;5030907;28;20034;-65
2021/12/08 11:23:41;;;;;;;39.60;20.73;;;154.40;2252.80;;;;;;5030706;28;20049;-53
2021/12/08 11:26:15;;;;;;;26.63;15.73;;;179.20;2252.80;;;;;;5030689;28;20033;-67
2021/12/08 11:28:41;;;;;;;23.00;15.13;;;154.40;2252.80;;;;;;5030469;28;20021;-67
2021/12/08 11:31:11;;;;;;;25.67;18.38;;;154.40;2252.80;;;;;;5030581;28;20040;-64
2021/12/08 11:33:43;;;;;;;43.55;25.20;;;179.20;2252.80;;;;;;5030315;28;20156;-67
2021/12/08 11:36:12;;;;;;;47.53;30.58;;;179.20;2252.80;;;;;;5030486;28;20033;-67
2021/12/08 11:38:38;;;;;;;38.80;25.42;;;154.50;2252.80;;;;;;5030524;28;20083;-64
2021/12/08 11:41:36;;;;;;;22.00;14.07;;;154.40;2252.80;;;;;;5030286;28;20483;-56
2021/12/08 11:44:11;;;;;;;22.50;13.32;;;154.20;2252.80;;;;;;5018624;28;20034;-59
2021/12/08 11:46:41;;;;;;;43.38;27.10;;;154.40;2252.80;;;;;;5028786;28;20061;-56
2021/12/08 11:49:09;;;;;;;30.85;19.73;;;179.20;2252.80;;;;;;5029057;28;20095;-54
2021/12/08 11:51:54;;;;;;;34.85;23.38;;;179.20;2252.80;;;;;;5028992;28;20164;-54
2021/12/08 11:54:30;;;;;;;45.83;25.33;;;179.20;2252.80;;;;;;5029513;28;20107;-55
2021/12/08 11:57:02;;;;;;;44.95;29.85;;;179.40;2252.80;;;;;;5028484;28;20509;-53
2021/12/08 11:59:28;;;;;;;70.68;37.05;;;179.20;2252.80;;;;;;5028759;28;20551;-53
2021/12/08 12:01:54;;;;;;;35.53;22.95;;;154.50;2252.80;;;;;;5028392;28;20115;-54
2021/12/08 12:04:20;;;;;;;46.08;29.27;;;154.30;2252.80;;;;;;5043413;28;20045;-54
2021/12/08 12:06:46;;;;;;;73.28;42.22;;;154.30;2252.80;;;;;;5028719;28;20033;-54
2021/12/08 12:09:11;;;;;;;101.60;55.78;;;154.40;2252.80;;;;;;5028358;28;20482;-55
2021/12/08 12:11:37;;;;;;;68.30;41.10;;;154.30;2252.80;;;;;;5028169;28;20041;-53
2021/12/08 12:14:04;;;;;;;48.15;31.08;;;154.40;2252.80;;;;;;5028380;28;20029;-58
2021/12/08 12:16:32;;;;;;;57.17;36.92;;;154.40;2252.80;;;;;;5028263;28;20027;-54
2021/12/08 12:19:04;;;;;;;42.97;29.15;;;179.20;2252.80;;;;;;5028493;28;20104;-54
2021/12/08 12:22:02;;;;;;;55.13;33.20;;;179.20;2252.80;;;;;;5032492;28;20025;-57
2021/12/08 12:24:52;;;;;;;38.35;23.83;;;179.30;2252.80;;;;;;5031945;28;20110;-53
2021/12/08 12:27:39;;;;;;;27.83;16.58;;;179.40;2252.80;;;;;;5032698;28;20412;-53
2021/12/08 12:30:48;;;;;;;72.90;41.20;;;179.20;2252.80;;;;;;5032160;28;20029;-57
2021/12/08 12:33:18;;;;;;;33.95;22.73;;;179.20;2252.80;;;;;;4970848;28;20378;-52
2021/12/08 12:35:56;;;;;;;27.33;19.10;;;179.20;2252.80;;;;;;4970853;28;20610;-54
2021/12/08 12:38:36;;;;;;;24.60;16.02;;;179.20;2252.80;;;;;;4970654;28;20134;-53
2021/12/08 12:41:04;;;;;;;28.98;18.45;;;179.20;2252.80;;;;;;4970838;28;20039;-53
2021/12/08 12:43:34;;;;;;;35.58;22.65;;;179.20;2252.80;;;;;;4970992;28;20031;-52
2021/12/08 12:46:10;;;;;;;61.17;36.05;;;179.20;2252.80;;;;;;4970861;28;20061;-53
2021/12/08 12:48:37;;;;;;;35.55;20.58;;;179.20;2252.80;;;;;;4970972;28;20039;-54
2021/12/08 12:51:11;;;;;;;60.20;36.88;;;154.50;2252.80;;;;;;4970505;28;20125;-55
2021/12/08 12:53:49;;;;;;;54.65;31.45;;;154.50;2252.80;;;;;;4973120;28;20075;-53
2021/12/08 12:56:16;;;;;;;52.47;34.00;;;154.40;2252.80;;;;;;4972573;28;20039;-68
2021/12/08 12:58:46;;;;;;;43.90;24.38;;;154.50;2252.80;;;;;;4972320;28;20053;-64
2021/12/08 13:01:15;;;;;;;42.42;27.33;;;179.40;2252.80;;;;;;4972175;28;20026;-64
2021/12/08 13:03:43;;;;;;;37.50;30.15;;;179.20;2252.80;;;;;;4972249;28;20034;-67
2021/12/08 13:06:12;;;;;;;72.43;39.80;;;179.20;2252.80;;;;;;4972254;28;20031;-68
2021/12/08 13:08:51;;;;;;;53.70;32.85;;;154.50;2252.80;;;;;;4972445;28;20030;-67
2021/12/08 13:11:25;;;;;;;46.28;27.63;;;179.40;2252.80;;;;;;5033093;28;20045;-57